Time;durP1;ratioP1;P1;durP2;ratioP2;P2;SDS_P1;SDS_P2;PMS_P1;PMS_P2;Temp;Humidity;BMP_temperature;BMP_pressure;BME280_temperature;BME280_humidity;BME280_pressure;Samples;Min_cycle;Max_cycle;Signal;HPM_P1;HPM_P2
2021/12/10 00:01:20;;;;;;;21.20;12.52;;;;;;;4.35;100.00;98939.56;6298392;28;20136;-74
2021/12/10 00:04:29;;;;;;;21.85;12.75;;;;;;;4.35;100.00;98937.00;6299158;28;20047;-75
2021/12/10 00:07:30;;;;;;;21.10;11.20;;;;;;;4.24;100.00;98935.00;6298188;28;20115;-74
2021/12/10 00:10:38;;;;;;;22.88;12.05;;;;;;;4.34;100.00;98937.06;6297154;28;20048;-74
2021/12/10 00:13:43;;;;;;;22.77;10.73;;;;;;;4.36;100.00;98938.66;6297965;28;20045;-74
2021/12/10 00:16:45;;;;;;;22.33;11.27;;;;;;;4.22;100.00;98943.72;6298933;28;20526;-74
2021/12/10 00:19:50;;;;;;;26.17;12.30;;;;;;;4.23;100.00;98929.91;6299051;28;20044;-74
2021/12/10 00:22:57;;;;;;;20.63;10.82;;;;;;;4.25;100.00;98922.91;6297300;28;20685;-74
2021/12/10 00:25:59;;;;;;;20.98;11.63;;;;;;;4.27;100.00;98928.00;6298177;28;20461;-74
2021/12/10 00:29:03;;;;;;;22.67;12.88;;;;;;;4.29;100.00;98934.75;6298366;28;20053;-74
2021/12/10 00:32:16;;;;;;;21.98;12.27;;;;;;;4.24;100.00;98947.03;6298587;28;20037;-74
2021/12/10 00:35:24;;;;;;;24.45;12.45;;;;;;;4.34;100.00;98943.06;6298453;28;20044;-74
2021/12/10 00:38:26;;;;;;;20.70;11.80;;;;;;;4.21;100.00;98949.81;6298646;28;20041;-74
2021/12/10 00:41:28;;;;;;;25.17;13.95;;;;;;;4.31;100.00;98948.41;6297089;28;20047;-74
2021/12/10 00:44:29;;;;;;;23.42;13.27;;;;;;;4.29;100.00;98952.00;6298448;28;20086;-74
2021/12/10 00:47:30;;;;;;;23.50;11.77;;;;;;;4.24;100.00;98958.22;6296875;28;20120;-74
2021/12/10 00:50:38;;;;;;;19.45;11.23;;;;;;;4.17;100.00;98951.69;6297022;28;20093;-74
2021/12/10 00:53:41;;;;;;;20.98;11.38;;;;;;;4.10;100.00;98960.69;6298042;28;20036;-73
2021/12/10 00:56:42;;;;;;;22.98;12.70;;;;;;;4.12;100.00;98952.84;6297108;28;20047;-74
2021/12/10 00:59:46;;;;;;;26.30;14.75;;;;;;;4.17;100.00;98945.72;6297867;28;20040;-73
2021/12/10 01:02:47;;;;;;;27.38;14.13;;;;;;;4.22;100.00;98947.16;6296484;28;20393;-73
2021/12/10 01:05:52;;;;;;;27.63;14.07;;;;;;;4.13;100.00;98939.88;6297693;28;20047;-74
2021/12/10 01:08:58;;;;;;;24.00;13.10;;;;;;;4.26;100.00;98950.38;6296706;28;20045;-74
2021/12/10 01:12:10;;;;;;;24.48;13.55;;;;;;;4.17;100.00;98925.88;6297821;28;20064;-73
2021/12/10 01:25:36;;;;;;;24.13;13.23;;;;;;;3.98;100.00;98946.66;6296966;28;20506;-74
2021/12/10 01:28:41;;;;;;;19.65;11.27;;;;;;;4.08;100.00;98951.34;6296704;28;20102;-74
2021/12/10 01:31:43;;;;;;;25.42;13.27;;;;;;;4.13;100.00;98962.28;6296060;28;20562;-74
2021/12/10 01:34:44;;;;;;;;;;;;;;;4.06;100.00;98958.34;6297940;28;20068;-74
2021/12/10 01:37:45;;;;;;;23.05;12.30;;;;;;;4.03;100.00;98967.91;6295843;28;19930;-74
2021/12/10 01:40:49;;;;;;;28.00;13.70;;;;;;;4.05;100.00;98983.31;6295983;28;20045;-74
2021/12/10 01:43:52;;;;;;;22.92;13.23;;;;;;;3.89;100.00;98975.53;6297141;28;20093;-74
2021/12/10 01:46:54;;;;;;;23.58;13.48;;;;;;;3.94;100.00;98975.31;6297086;28;20045;-74
2021/12/10 01:49:55;;;;;;;23.70;13.35;;;;;;;3.83;100.00;98981.00;6279259;28;20388;-74
2021/12/10 01:52:59;;;;;;;25.55;12.30;;;;;;;3.90;100.00;98979.78;6296311;28;20064;-74
2021/12/10 01:56:15;;;;;;;29.00;14.07;;;;;;;3.83;100.00;98986.19;6296101;28;20511;-74
2021/12/10 01:59:19;;;;;;;23.67;14.02;;;;;;;3.89;100.00;98979.84;6295809;28;20040;-73
2021/12/10 02:02:24;;;;;;;23.52;12.70;;;;;;;3.75;100.00;98986.56;6295894;28;20468;-73
2021/12/10 02:05:26;;;;;;;22.15;13.20;;;;;;;3.79;100.00;98974.34;6295696;28;20051;-74
2021/12/10 02:08:27;;;;;;;22.88;13.25;;;;;;;3.67;100.00;98991.25;6295709;28;20044;-73
2021/12/10 02:11:27;;;;;;;20.45;12.68;;;;;;;3.72;100.00;98988.44;6296792;28;20393;-74
2021/12/10 02:14:28;;;;;;;18.70;10.75;;;;;;;3.66;100.00;98988.75;6295658;28;20040;-74
2021/12/10 02:17:34;;;;;;;17.38;11.48;;;;;;;3.50;100.00;98973.19;6296538;28;20397;-74
2021/12/10 02:20:46;;;;;;;14.02;8.68;;;;;;;3.48;100.00;98980.16;6295905;28;20033;-73
2021/12/10 02:23:57;;;;;;;14.87;9.67;;;;;;;3.56;100.00;98986.63;6296609;28;20052;-73
2021/12/10 02:27:02;;;;;;;21.10;12.23;;;;;;;3.52;100.00;98992.00;6296714;28;20037;-74
2021/12/10 02:30:07;;;;;;;28.05;14.20;;;;;;;3.49;100.00;98992.16;6294349;28;20052;-74
2021/12/10 02:33:10;;;;;;;24.80;14.15;;;;;;;3.49;100.00;98993.00;6297080;28;20477;-74
2021/12/10 02:36:12;;;;;;;26.58;14.80;;;;;;;3.43;100.00;99004.44;6300070;28;20052;-74
2021/12/10 02:39:16;;;;;;;25.17;14.55;;;;;;;3.45;100.00;99000.97;6300285;28;20094;-74
2021/12/10 02:42:18;;;;;;;26.85;13.68;;;;;;;3.32;100.00;99004.13;6301344;28;20048;-73
2021/12/10 02:45:21;;;;;;;26.38;12.98;;;;;;;3.34;100.00;99004.06;6299972;28;20040;-74
2021/12/10 02:48:24;;;;;;;18.98;10.98;;;;;;;3.24;100.00;99003.66;6283080;28;20044;-73
2021/12/10 02:51:25;;;;;;;;;;;;;;;3.23;100.00;99004.53;6300135;28;20583;-74
2021/12/10 02:54:34;;;;;;;23.42;12.25;;;;;;;3.32;100.00;98995.56;6301008;28;19927;-73
2021/12/10 02:57:35;;;;;;;25.83;12.35;;;;;;;3.21;100.00;98990.91;6299597;28;20048;-74
2021/12/10 03:00:46;;;;;;;23.15;12.82;;;;;;;3.21;100.00;98994.34;6299561;28;20041;-73
2021/12/10 03:03:48;;;;;;;26.33;14.18;;;;;;;3.17;100.00;98997.97;6300733;28;20049;-74
2021/12/10 03:06:53;;;;;;;29.98;14.63;;;;;;;3.19;100.00;98998.72;6300690;28;20041;-74
2021/12/10 03:09:54;;;;;;;27.50;14.63;;;;;;;3.29;100.00;98983.63;6299483;28;20428;-74
2021/12/10 03:12:55;;;;;;;29.58;15.60;;;;;;;3.20;100.00;98984.91;6282728;28;20082;-74
2021/12/10 03:15:56;;;;;;;26.13;13.65;;;;;;;3.23;100.00;98983.94;6299069;28;20080;-74
2021/12/10 03:18:56;;;;;;;29.80;15.88;;;;;;;3.24;100.00;98995.91;6282613;28;20045;-74
2021/12/10 03:21:57;;;;;;;24.88;13.55;;;;;;;3.20;100.00;98996.97;6282655;28;20041;-74
2021/12/10 03:24:58;;;;;;;25.30;13.23;;;;;;;3.27;100.00;98993.19;6298929;28;20377;-73
2021/12/10 03:28:00;;;;;;;32.33;16.20;;;;;;;3.38;100.00;99008.16;6299837;28;20052;-74
2021/12/10 03:31:02;;;;;;;33.83;15.70;;;;;;;3.29;100.00;99018.91;6299866;28;20124;-74
2021/12/10 03:34:04;;;;;;;34.17;16.20;;;;;;;3.38;100.00;99000.44;6299437;28;20040;-74
2021/12/10 03:37:06;;;;;;;29.95;15.60;;;;;;;3.35;100.00;98990.25;6298623;28;20443;-75
2021/12/10 03:40:09;;;;;;;34.47;16.50;;;;;;;3.55;100.00;98994.44;6282346;28;20448;-74
2021/12/10 03:43:11;;;;;;;33.03;15.95;;;;;;;3.34;100.00;99011.78;6298529;28;20040;-74
2021/12/10 03:46:13;;;;;;;27.63;14.27;;;;;;;3.39;100.00;99010.66;6298480;28;20396;-74
2021/12/10 03:49:15;;;;;;;27.58;13.40;;;;;;;3.26;100.00;99007.00;6299801;28;20048;-74
2021/12/10 03:52:16;;;;;;;32.20;15.97;;;;;;;3.30;100.00;99007.69;6299703;28;20040;-74
2021/12/10 03:55:18;;;;;;;31.67;14.90;;;;;;;3.34;100.00;98997.16;6298436;28;20053;-74
2021/12/10 03:58:19;;;;;;;31.58;15.38;;;;;;;3.35;100.00;98996.22;6298381;28;20044;-74
2021/12/10 04:01:24;;;;;;;33.05;15.48;;;;;;;3.18;100.00;98989.31;6298084;28;20378;-74
2021/12/10 04:04:33;;;;;;;31.42;15.90;;;;;;;3.28;100.00;98984.56;6315265;28;20056;-75
2021/12/10 04:07:34;;;;;;;31.77;15.20;;;;;;;3.10;100.00;98998.31;6299087;28;20049;-74
2021/12/10 04:10:35;;;;;;;30.55;13.82;;;;;;;3.05;100.00;99000.25;6281446;28;20097;-74
2021/12/10 04:13:36;;;;;;;25.77;13.38;;;;;;;3.08;100.00;98995.81;6299291;28;20040;-73
2021/12/10 04:16:37;;;;;;;28.35;14.40;;;;;;;3.16;100.00;98996.28;6297687;28;20044;-74
2021/12/10 04:19:40;;;;;;;30.92;14.85;;;;;;;3.13;100.00;99001.59;6299050;28;20106;-74
2021/12/10 04:22:46;;;;;;;28.10;14.45;;;;;;;3.31;100.00;98991.31;6298950;28;20045;-74
2021/12/10 04:25:47;;;;;;;29.88;14.77;;;;;;;3.44;100.00;98994.97;6298797;28;20400;-74
2021/12/10 04:28:48;;;;;;;32.22;15.05;;;;;;;3.45;100.00;98983.72;6298413;28;20129;-74
2021/12/10 04:31:52;;;;;;;30.17;14.90;;;;;;;3.55;100.00;98976.38;6280863;28;20582;-74
2021/12/10 04:34:53;;;;;;;33.13;15.95;;;;;;;3.46;100.00;98964.78;6298292;28;20124;-74
2021/12/10 04:37:54;;;;;;;33.53;15.93;;;;;;;3.37;100.00;98968.63;6314436;28;20513;-74
2021/12/10 04:41:00;;;;;;;31.58;14.93;;;;;;;3.51;100.00;98978.28;6297052;28;20512;-74
2021/12/10 04:44:03;;;;;;;34.83;15.68;;;;;;;3.56;100.00;98985.78;6298294;28;20048;-74
2021/12/10 04:47:04;;;;;;;30.90;15.63;;;;;;;3.43;100.00;99001.84;6298037;28;20033;-74
2021/12/10 04:50:06;;;;;;;33.30;15.23;;;;;;;3.25;100.00;98986.44;6280438;28;20044;-74
2021/12/10 04:53:10;;;;;;;29.55;14.38;;;;;;;3.10;100.00;98991.41;6297915;28;20455;-74
2021/12/10 04:56:10;;;;;;;30.05;15.05;;;;;;;3.19;100.00;99000.44;6297815;28;20469;-74
2021/12/10 04:59:15;;;;;;;30.52;14.80;;;;;;;3.11;100.00;99006.00;6296731;28;20042;-73
2021/12/10 05:02:17;;;;;;;27.38;14.38;;;;;;;3.20;100.00;99007.28;6297799;28;20393;-74
2021/12/10 05:05:19;;;;;;;32.92;14.73;;;;;;;2.98;100.00;98986.84;6297897;28;20393;-74
2021/12/10 05:08:19;;;;;;;32.80;14.75;;;;;;;3.16;100.00;98998.84;6296434;28;20036;-74
2021/12/10 05:11:20;;;;;;;28.05;14.55;;;;;;;3.06;100.00;99007.09;6297768;28;20550;-74
2021/12/10 05:14:22;;;;;;;25.13;12.95;;;;;;;3.08;100.00;99021.59;6296425;28;20048;-74
2021/12/10 05:17:27;;;;;;;29.23;14.65;;;;;;;3.11;100.00;99029.19;6296450;28;20095;-74
2021/12/10 05:20:33;;;;;;;31.20;14.48;;;;;;;3.02;100.00;99020.13;6280135;28;20052;-74
2021/12/10 05:23:34;;;;;;;27.67;13.55;;;;;;;3.03;100.00;99024.38;6297437;28;20044;-74
2021/12/10 05:26:36;;;;;;;30.17;14.70;;;;;;;3.18;100.00;99016.84;6297489;28;20044;-74
2021/12/10 05:29:37;;;;;;;30.00;14.70;;;;;;;3.01;100.00;99015.88;6296728;28;20137;-74
2021/12/10 05:32:37;;;;;;;31.10;15.25;;;;;;;3.00;100.00;99023.69;6297029;28;20040;-75
2021/12/10 05:35:38;;;;;;;29.05;14.00;;;;;;;3.01;100.00;99022.78;6296132;28;20469;-74
2021/12/10 05:38:39;;;;;;;31.67;16.65;;;;;;;2.92;100.00;99031.75;6297169;28;20052;-73
2021/12/10 05:41:41;;;;;;;32.17;15.95;;;;;;;3.07;100.00;99045.69;6295867;28;20040;-74
2021/12/10 05:44:42;;;;;;;33.50;16.60;;;;;;;3.05;100.00;99044.94;6295934;28;20044;-74
2021/12/10 05:47:43;;;;;;;25.30;13.63;;;;;;;3.00;100.00;99046.88;6296936;28;20033;-74
2021/12/10 05:50:45;;;;;;;33.93;16.00;;;;;;;3.03;100.00;99051.91;6295845;28;20093;-74
2021/12/10 05:53:45;;;;;;;42.78;21.40;;;;;;;3.05;100.00;99057.81;6297055;28;20048;-74
2021/12/10 05:56:46;;;;;;;31.42;16.65;;;;;;;3.11;100.00;99051.53;6300265;28;20036;-74
2021/12/10 05:59:47;;;;;;;31.48;16.23;;;;;;;3.03;100.00;99062.22;6319789;28;20047;-74
2021/12/10 06:02:49;;;;;;;33.20;17.00;;;;;;;2.91;100.00;99062.78;6287181;28;20431;-74
2021/12/10 06:05:50;;;;;;;34.97;16.85;;;;;;;2.93;100.00;99063.53;6321878;28;20085;-74
2021/12/10 06:08:51;;;;;;;38.92;18.42;;;;;;;2.87;100.00;99067.22;6287403;28;20374;-73
2021/12/10 06:11:52;;;;;;;39.73;17.63;;;;;;;2.83;100.00;99061.34;6325981;28;20040;-74
2021/12/10 06:14:53;;;;;;;33.50;17.25;;;;;;;2.81;100.00;99057.19;6309006;28;20068;-74
2021/12/10 06:17:53;;;;;;;37.30;18.83;;;;;;;2.82;100.00;99057.13;6325630;28;20074;-74
2021/12/10 06:20:54;;;;;;;37.08;18.75;;;;;;;2.85;100.00;99050.16;6326891;28;20050;-74
2021/12/10 06:23:56;;;;;;;35.53;18.63;;;;;;;2.86;100.00;99075.00;6325442;28;20062;-74
2021/12/10 06:26:57;;;;;;;38.72;20.10;;;;;;;2.81;100.00;99065.75;6326898;28;20051;-74
2021/12/10 06:29:58;;;;;;;39.10;19.08;;;;;;;2.76;100.00;99038.50;6325228;28;20055;-74
2021/12/10 06:33:03;;;;;;;37.28;17.70;;;;;;;2.81;100.00;99041.72;6322373;28;20036;-74
2021/12/10 06:36:06;;;;;;;37.80;18.95;;;;;;;2.82;100.00;99061.41;6306698;28;20052;-74
2021/12/10 06:39:08;;;;;;;34.17;17.23;;;;;;;2.82;100.00;99082.03;6314007;28;20381;-75
2021/12/10 06:42:08;;;;;;;38.35;18.98;;;;;;;2.98;100.00;99074.47;6324348;28;20530;-74
2021/12/10 06:45:12;;;;;;;46.17;23.90;;;;;;;2.88;100.00;99066.28;6341183;28;20351;-74
2021/12/10 06:48:15;;;;;;;37.40;19.17;;;;;;;2.87;100.00;99074.94;6324967;28;20036;-74
2021/12/10 06:51:19;;;;;;;41.88;19.65;;;;;;;2.90;100.00;99072.22;6323997;28;20496;-74
2021/12/10 06:54:20;;;;;;;42.95;18.40;;;;;;;2.85;100.00;99081.09;6325001;28;20040;-74
2021/12/10 06:57:21;;;;;;;41.08;18.08;;;;;;;2.99;100.00;99079.53;6324999;28;20047;-74
2021/12/10 07:00:30;;;;;;;45.17;21.45;;;;;;;3.03;100.00;99086.22;6323705;28;20046;-74
2021/12/10 07:03:32;;;;;;;45.65;21.60;;;;;;;3.12;100.00;99094.44;6324948;28;20105;-74
2021/12/10 07:06:33;;;;;;;43.80;20.33;;;;;;;3.09;100.00;99102.31;6323519;28;20381;-74
2021/12/10 07:09:35;;;;;;;46.15;20.55;;;;;;;3.02;100.00;99096.59;6324708;28;20040;-74
2021/12/10 07:12:38;;;;;;;43.42;19.70;;;;;;;3.09;100.00;99094.56;6324708;28;20480;-74
2021/12/10 07:15:42;;;;;;;54.92;20.30;;;;;;;3.05;100.00;99085.31;6324529;28;20044;-74
2021/12/10 07:18:44;;;;;;;46.92;19.63;;;;;;;2.97;100.00;99077.94;6322870;28;20040;-74
2021/12/10 07:21:44;;;;;;;46.30;20.10;;;;;;;2.88;100.00;99063.72;6323173;28;20036;-74
2021/12/10 07:24:45;;;;;;;48.28;21.30;;;;;;;3.01;100.00;99056.28;6306444;28;20048;-74
2021/12/10 07:27:48;;;;;;;52.90;22.60;;;;;;;2.99;100.00;99052.94;6288772;28;20511;-74
2021/12/10 07:30:51;;;;;;;52.28;22.73;;;;;;;2.99;100.00;99055.53;6310573;28;20499;-74
2021/12/10 07:33:53;;;;;;;59.05;21.95;;;;;;;3.09;100.00;99056.78;6311950;28;20490;-74
2021/12/10 07:36:54;;;;;;;51.75;20.83;;;;;;;2.98;100.00;99052.09;6324238;28;20073;-74
2021/12/10 07:39:55;;;;;;;56.45;21.40;;;;;;;2.93;100.00;99051.47;6308932;28;20045;-74
2021/12/10 07:42:56;;;;;;;58.70;20.73;;;;;;;2.77;100.00;99053.06;6316931;28;20131;-74
2021/12/10 07:45:57;;;;;;;54.28;21.42;;;;;;;2.78;100.00;99062.47;6322842;28;20399;-73
2021/12/10 07:48:58;;;;;;;56.13;21.20;;;;;;;2.76;100.00;99070.28;6323839;28;20484;-74
2021/12/10 07:52:00;;;;;;;48.72;20.48;;;;;;;2.74;100.00;99066.06;6323815;28;20043;-73
2021/12/10 07:55:05;;;;;;;47.88;20.50;;;;;;;2.56;100.00;99068.56;6305704;28;20044;-74
2021/12/10 07:58:07;;;;;;;44.90;18.63;;;;;;;2.75;100.00;99070.34;6323798;28;20043;-74
2021/12/10 08:01:20;;;;;;;45.20;18.60;;;;;;;2.74;100.00;99063.50;6322429;28;20040;-75
2021/12/10 08:04:21;;;;;;;47.90;19.13;;;;;;;2.72;100.00;99048.13;6322399;28;20408;-74
2021/12/10 08:07:22;;;;;;;47.42;19.33;;;;;;;2.82;100.00;99041.66;6323456;28;20047;-74
2021/12/10 08:10:23;;;;;;;52.85;20.48;;;;;;;2.67;100.00;99036.38;6323415;28;20040;-74
2021/12/10 08:13:24;;;;;;;58.08;21.30;;;;;;;2.67;100.00;99044.09;6322075;28;20068;-74
2021/12/10 08:16:25;;;;;;;65.05;23.88;;;;;;;2.71;100.00;99043.03;6316836;28;20404;-74
2021/12/10 08:19:26;;;;;;;50.38;19.48;;;;;;;2.79;100.00;99054.66;6310030;28;20040;-74
2021/12/10 08:22:27;;;;;;;55.80;21.27;;;;;;;2.93;100.00;99045.50;6300930;28;20043;-74
2021/12/10 08:25:29;;;;;;;57.65;20.95;;;;;;;2.95;100.00;99046.25;6306115;28;20078;-75
2021/12/10 08:28:32;;;;;;;85.57;22.00;;;;;;;2.87;100.00;99048.34;6297637;28;20080;-74
2021/12/10 08:31:33;;;;;;;52.22;20.65;;;;;;;2.76;100.00;99049.69;6295866;28;20045;-74
2021/12/10 08:34:34;;;;;;;61.05;22.00;;;;;;;2.88;100.00;99037.94;6313725;28;20075;-74
2021/12/10 08:37:35;;;;;;;52.85;19.48;;;;;;;2.86;100.00;99031.22;6311401;28;20041;-74
2021/12/10 08:40:41;;;;;;;50.38;18.48;;;;;;;2.84;100.00;99041.56;6297876;28;20075;-74
2021/12/10 08:43:43;;;;;;;49.55;17.23;;;;;;;2.93;100.00;99032.63;6296249;28;20095;-75
2021/12/10 08:46:45;;;;;;;47.90;18.85;;;;;;;3.09;100.00;99054.19;6300315;28;20054;-74
2021/12/10 08:49:46;;;;;;;47.73;19.40;;;;;;;3.04;100.00;99045.81;6322430;28;20123;-74
2021/12/10 08:52:46;;;;;;;45.30;18.52;;;;;;;3.03;100.00;99042.41;6309034;28;20378;-74
2021/12/10 08:55:52;;;;;;;55.95;21.20;;;;;;;3.14;100.00;99041.09;6295812;28;20049;-74
2021/12/10 08:58:53;;;;;;;51.33;19.85;;;;;;;3.08;100.00;99031.88;6297160;28;20444;-74
2021/12/10 09:01:58;;;;;;;51.55;19.90;;;;;;;3.11;100.00;99025.75;6296807;28;20040;-74
2021/12/10 09:04:58;;;;;;;52.33;20.42;;;;;;;3.14;100.00;99012.72;6296884;28;20046;-74
2021/12/10 09:07:59;;;;;;;44.15;18.23;;;;;;;3.14;100.00;99013.56;6295617;28;20044;-74
2021/12/10 09:11:00;;;;;;;41.90;17.35;;;;;;;2.98;100.00;99021.16;6298071;28;20063;-74
2021/12/10 09:14:01;;;;;;;46.78;18.33;;;;;;;2.97;100.00;99031.56;6317181;28;20488;-75
2021/12/10 09:17:03;;;;;;;53.08;20.35;;;;;;;3.04;100.00;99032.94;6309451;28;20041;-74
2021/12/10 09:20:09;;;;;;;44.97;18.42;;;;;;;3.01;100.00;99022.78;6305494;28;20113;-74
2021/12/10 09:23:13;;;;;;;49.33;19.73;;;;;;;3.08;100.00;99020.75;6321877;28;20067;-74
2021/12/10 09:26:18;;;;;;;43.53;18.20;;;;;;;2.99;100.00;99022.03;6306262;28;20041;-74
2021/12/10 09:29:19;;;;;;;40.88;16.42;;;;;;;3.10;100.00;99017.19;6297193;28;20052;-74
2021/12/10 09:32:26;;;;;;;32.95;14.13;;;;;;;2.98;100.00;99023.75;6295061;28;20044;-74
2021/12/10 09:35:30;;;;;;;34.72;14.75;;;;;;;3.09;100.00;99028.41;6303814;28;20431;-74
2021/12/10 09:38:32;;;;;;;50.95;21.20;;;;;;;3.02;100.00;99032.16;6300336;28;20405;-73
2021/12/10 09:41:33;;;;;;;45.35;18.90;;;;;;;3.02;100.00;99032.16;6296106;28;20043;-74
2021/12/10 09:44:36;;;;;;;43.70;16.52;;;;;;;3.00;100.00;99018.53;6296467;28;20048;-74
2021/12/10 09:47:38;;;;;;;43.80;16.88;;;;;;;2.90;100.00;99012.94;6295917;28;20492;-74
2021/12/10 09:50:47;;;;;;;42.28;16.23;;;;;;;2.93;100.00;99006.84;6295232;28;20041;-74
2021/12/10 09:53:50;;;;;;;33.60;14.35;;;;;;;3.03;100.00;99011.50;6295667;28;20087;-73
2021/12/10 09:57:05;;;;;;;40.80;17.17;;;;;;;2.95;100.00;99005.84;6317760;28;20044;-74
2021/12/10 10:00:22;;;;;;;42.60;17.88;;;;;;;2.96;100.00;99006.69;6299012;28;20098;-74
2021/12/10 10:03:30;;;;;;;41.35;16.75;;;;;;;3.02;100.00;99004.66;6329182;28;20048;-74
2021/12/10 10:06:36;;;;;;;37.25;14.68;;;;;;;3.01;100.00;99007.31;6318534;28;20040;-73
2021/12/10 10:09:37;;;;;;;41.13;16.33;;;;;;;3.08;100.00;99000.97;6315091;28;20094;-74
2021/12/10 10:12:40;;;;;;;33.08;13.50;;;;;;;3.16;100.00;98985.13;6319477;28;20048;-74
2021/12/10 10:15:43;;;;;;;30.45;13.75;;;;;;;3.27;100.00;98976.88;6295977;28;20051;-74
2021/12/10 10:18:44;;;;;;;28.15;13.20;;;;;;;3.46;100.00;98980.25;6294601;28;20068;-74
2021/12/10 10:21:50;;;;;;;33.88;15.45;;;;;;;3.51;100.00;98985.19;6294433;28;20068;-74
2021/12/10 10:24:53;;;;;;;27.98;13.32;;;;;;;3.48;100.00;98986.19;6301227;28;20098;-74
2021/12/10 10:27:53;;;;;;;35.90;13.40;;;;;;;3.53;100.00;98985.94;6306984;28;20080;-74
2021/12/10 10:31:02;;;;;;;37.78;16.95;;;;;;;3.54;100.00;98990.19;6299746;28;20032;-74
2021/12/10 10:34:03;;;;;;;36.10;15.48;;;;;;;3.55;100.00;98994.44;6300360;28;20150;-74
2021/12/10 10:37:04;;;;;;;42.28;15.05;;;;;;;3.58;100.00;98973.63;6294123;28;20067;-74
2021/12/10 10:40:10;;;;;;;34.63;15.65;;;;;;;3.68;100.00;98985.16;6295508;28;20060;-74
2021/12/10 10:43:12;;;;;;;32.63;13.77;;;;;;;3.64;100.00;98983.66;6295405;28;20087;-73
2021/12/10 10:46:13;;;;;;;33.67;16.30;;;;;;;3.51;100.00;98977.44;6327905;28;20049;-74
2021/12/10 10:49:36;;;;;;;37.28;17.40;;;;;;;3.56;100.00;98980.63;6304126;28;20451;-73
2021/12/10 10:52:43;;;;;;;52.90;20.23;;;;;;;3.43;100.00;98970.06;6296048;28;20047;-73
2021/12/10 10:56:00;;;;;;;39.17;17.80;;;;;;;3.55;100.00;98968.66;6316428;28;20051;-73
2021/12/10 10:59:12;;;;;;;46.03;17.35;;;;;;;3.39;100.00;98974.53;6323922;28;20111;-73
2021/12/10 11:02:13;;;;;;;49.17;17.90;;;;;;;3.56;100.00;98972.88;6324844;28;20041;-73
2021/12/10 11:05:16;;;;;;;47.45;18.02;;;;;;;3.62;100.00;98985.47;6324819;28;20093;-74
2021/12/10 11:08:31;;;;;;;50.78;19.98;;;;;;;3.61;100.00;98976.91;6324776;28;20567;-73
2021/12/10 11:11:35;;;;;;;56.08;20.63;;;;;;;3.65;100.00;98974.19;6324725;28;20118;-73
2021/12/10 11:14:42;;;;;;;59.45;20.55;;;;;;;3.72;100.00;98978.13;6324650;28;20044;-73
2021/12/10 11:17:51;;;;;;;47.78;17.67;;;;;;;3.68;100.00;98976.59;6324569;28;20040;-73
2021/12/10 11:20:52;;;;;;;57.67;21.45;;;;;;;3.66;100.00;98981.84;6324420;28;20097;-73
2021/12/10 11:24:24;;;;;;;47.95;17.58;;;;;;;3.58;100.00;98982.25;6324287;28;20036;-73
2021/12/10 11:27:34;;;;;;;59.17;19.13;;;;;;;3.63;100.00;98988.00;6324180;28;20044;-74
2021/12/10 11:30:41;;;;;;;51.13;19.80;;;;;;;3.66;100.00;98981.00;6324348;28;20036;-74
2021/12/10 11:33:51;;;;;;;60.42;20.98;;;;;;;3.57;100.00;98977.16;6324039;28;20040;-73
2021/12/10 11:36:52;;;;;;;49.08;18.20;;;;;;;3.53;100.00;98988.53;6324090;28;20047;-73
2021/12/10 11:39:53;;;;;;;57.08;19.00;;;;;;;3.43;100.00;98976.06;6323964;28;20040;-73
2021/12/10 11:43:02;;;;;;;68.10;21.50;;;;;;;3.29;100.00;98975.06;6322978;28;20519;-74
2021/12/10 11:49:27;;;;;;;59.95;19.58;;;;;;;3.29;100.00;98963.00;6323843;28;20051;-73
2021/12/10 11:52:29;;;;;;;53.90;18.30;;;;;;;3.26;100.00;98960.59;6322451;28;20036;-73
2021/12/10 11:55:33;;;;;;;54.00;20.30;;;;;;;3.48;100.00;98956.94;6323636;28;20044;-74
2021/12/10 11:58:34;;;;;;;51.70;17.60;;;;;;;3.53;100.00;98955.81;6322282;28;20044;-74
2021/12/10 12:01:50;;;;;;;56.30;19.48;;;;;;;3.54;100.00;98944.59;6322236;28;20067;-74
2021/12/10 12:04:54;;;;;;;51.72;19.50;;;;;;;3.57;100.00;98946.19;6323155;28;20044;-74
2021/12/10 12:08:00;;;;;;;68.43;27.48;;;;;;;3.63;100.00;98938.97;6321338;28;20137;-74
2021/12/10 12:11:02;;;;;;;65.57;20.73;;;;;;;3.54;100.00;98952.34;6323256;28;20503;-73
2021/12/10 12:14:26;;;;;;;56.78;21.65;;;;;;;3.70;100.00;98948.97;6305397;28;20050;-73
2021/12/10 12:17:34;;;;;;;53.92;19.27;;;;;;;3.66;100.00;98950.06;6288412;28;20055;-73
2021/12/10 12:20:42;;;;;;;49.40;18.73;;;;;;;3.65;100.00;98946.66;6321951;28;20040;-73
2021/12/10 12:27:05;;;;;;;58.03;21.35;;;;;;;3.68;100.00;98951.63;6326954;27;20480;-74
2021/12/10 12:30:07;;;;;;;50.55;19.70;;;;;;;3.67;100.00;98949.97;6322730;28;20065;-73
2021/12/10 12:33:10;;;;;;;52.03;20.02;;;;;;;3.65;100.00;98949.22;6322696;28;20046;-74
2021/12/10 12:36:13;;;;;;;59.53;20.83;;;;;;;3.59;100.00;98940.03;6321432;28;20105;-74
2021/12/10 12:39:30;;;;;;;55.70;19.65;;;;;;;3.62;100.00;98929.59;6321450;28;20043;-74
2021/12/10 12:42:48;;;;;;;66.25;23.45;;;;;;;3.74;100.00;98940.19;6321437;28;20044;-73
2021/12/10 12:45:49;;;;;;;64.63;22.65;;;;;;;3.75;100.00;98931.53;6322426;28;20040;-73
2021/12/10 12:48:59;;;;;;;54.20;21.95;;;;;;;3.70;100.00;98939.50;6322330;28;20075;-74
2021/12/10 12:52:12;;;;;;;60.92;22.20;;;;;;;3.75;100.00;98947.03;6321013;28;20051;-74
2021/12/10 12:55:19;;;;;;;;;;;;;;;3.77;100.00;98942.63;6322610;28;20044;-74
2021/12/10 12:58:28;;;;;;;56.25;21.70;;;;;;;3.70;100.00;98933.50;6321021;28;20268;-73
2021/12/10 13:01:41;;;;;;;62.67;22.58;;;;;;;3.71;100.00;98938.59;6322088;28;20071;-73
2021/12/10 13:04:43;;;;;;;63.67;22.45;;;;;;;3.75;100.00;98937.53;6321839;28;20396;-73
2021/12/10 13:07:44;;;;;;;58.13;20.48;;;;;;;3.71;100.00;98925.69;6321918;28;20047;-73
2021/12/10 13:10:54;;;;;;;54.55;20.20;;;;;;;3.60;100.00;98928.81;6287305;28;20044;-73
2021/12/10 13:14:04;;;;;;;59.35;20.27;;;;;;;3.67;100.00;98939.66;6321722;28;20046;-74
2021/12/10 13:17:15;;;;;;;59.10;20.58;;;;;;;3.65;100.00;98935.50;6320172;28;20040;-74
2021/12/10 13:20:21;;;;;;;56.38;21.02;;;;;;;3.70;100.00;98926.59;6321634;28;20040;-73
2021/12/10 13:23:27;;;;;;;67.00;21.23;;;;;;;3.68;100.00;98930.16;6320422;28;20036;-74
2021/12/10 13:26:28;;;;;;;59.25;19.73;;;;;;;3.68;100.00;98931.00;6321533;28;20047;-74
2021/12/10 13:29:29;;;;;;;53.72;20.10;;;;;;;3.65;100.00;98933.75;6320076;28;20423;-74
2021/12/10 13:32:31;;;;;;;63.40;19.15;;;;;;;3.70;100.00;98925.75;6320170;28;20046;-74
2021/12/10 13:35:33;;;;;;;52.38;19.10;;;;;;;3.72;100.00;98927.34;6320230;28;20403;-74
2021/12/10 13:38:33;;;;;;;51.40;19.85;;;;;;;3.71;100.00;98927.44;6320116;28;20043;-73
2021/12/10 13:41:34;;;;;;;59.83;19.60;;;;;;;3.75;100.00;98923.81;6320133;28;20533;-74
2021/12/10 13:44:41;;;;;;;66.55;24.40;;;;;;;3.69;100.00;98922.34;6303117;28;20058;-74
2021/12/10 13:47:51;;;;;;;69.65;26.17;;;;;;;3.64;100.00;98921.75;6321095;28;20051;-74
2021/12/10 13:50:54;;;;;;;57.58;21.55;;;;;;;3.68;100.00;98923.25;6321130;28;20051;-74
2021/12/10 13:54:01;;;;;;;63.97;23.35;;;;;;;3.73;100.00;98928.22;6320943;28;20074;-74
2021/12/10 13:57:05;;;;;;;65.18;21.90;;;;;;;3.73;100.00;98931.63;6319904;28;20044;-74
2021/12/10 14:00:08;;;;;;;76.68;31.75;;;;;;;3.75;100.00;98927.22;6320905;28;20043;-74
2021/12/10 14:03:09;;;;;;;62.97;22.17;;;;;;;3.75;100.00;98926.38;6320898;28;20408;-74
2021/12/10 14:06:14;;;;;;;65.35;24.40;;;;;;;3.69;100.00;98926.69;6319486;28;20040;-74
2021/12/10 14:12:47;;;;;;;66.50;24.58;;;;;;;3.71;100.00;98917.13;6313471;28;20515;-73
2021/12/10 14:15:59;;;;;;;60.05;24.27;;;;;;;3.70;100.00;98913.69;6319656;28;20044;-74
2021/12/10 14:19:00;;;;;;;67.45;25.45;;;;;;;3.67;100.00;98919.03;6319796;28;20200;-74
2021/12/10 14:22:04;;;;;;;53.03;20.05;;;;;;;3.56;100.00;98914.41;6302787;28;20512;-73
2021/12/10 14:25:18;;;;;;;102.47;34.72;;;;;;;3.55;100.00;98905.00;6320417;28;20243;-74